Time;durP1;ratioP1;P1;durP2;ratioP2;P2;SDS_P1;SDS_P2;PMS_P1;PMS_P2;Temp;Humidity;BMP_temperature;BMP_pressure;BME280_temperature;BME280_humidity;BME280_pressure;Samples;Min_cycle;Max_cycle;Signal;HPM_P1;HPM_P2
2023/09/06 00:01:29;;;;;;;;;;;;;;;24.87;43.61;101385.81;7395375;19;1419;-38
2023/09/06 00:03:58;;;;;;;;;;;;;;;24.90;43.23;101394.47;7394665;19;1800;-37
2023/09/06 00:06:27;;;;;;;;;;;;;;;24.90;43.05;101393.63;7393415;19;1858;-38
2023/09/06 00:08:58;;;;;;;;;;;;;;;24.90;43.49;101397.16;7394212;19;1913;-37
2023/09/06 00:11:27;;;;;;;;;;;;;;;24.91;43.15;101392.59;7378910;19;1542;-37
2023/09/06 00:13:55;;;;;;;;;;;;;;;24.94;43.03;101397.72;7393437;19;1550;-37
2023/09/06 00:16:23;;;;;;;;;;;;;;;24.91;43.00;101393.47;7393374;19;1471;-37
2023/09/06 00:18:52;;;;;;;;;;;;;;;24.87;43.36;101383.97;7393550;19;1743;-37
2023/09/06 00:21:21;;;;;;;;;;;;;;;24.86;43.38;101392.25;7396531;19;1401;-37
2023/09/06 00:23:50;;;;;;;;;;;;;;;24.80;43.26;101377.50;7396713;19;1824;-38
2023/09/06 00:26:21;;;;;;;;;;;;;;;24.76;43.40;101376.97;7399252;19;1868;-37
2023/09/06 00:28:49;;;;;;;;;;;;;;;24.78;43.52;101393.03;7401130;19;1721;-37
2023/09/06 00:31:17;;;;;;;;;;;;;;;24.77;43.40;101385.91;7400319;19;1491;-38
2023/09/06 00:33:46;;;;;;;;;;;;;;;24.75;43.39;101390.63;7400886;19;1400;-38
2023/09/06 00:36:14;;;;;;;;;;;;;;;24.76;43.19;101381.53;7400971;19;1661;-38
2023/09/06 00:38:42;;;;;;;;;;;;;;;24.76;43.18;101387.78;7401422;19;1046;-38
2023/09/06 00:41:12;;;;;;;;;;;;;;;24.72;43.16;101383.69;7401118;19;1706;-38
2023/09/06 00:43:43;;;;;;;;;;;;;;;24.81;43.13;101381.91;7400322;19;1886;-38
2023/09/06 00:46:11;;;;;;;;;;;;;;;24.79;43.16;101387.47;7393204;19;1845;-38
2023/09/06 00:48:40;;;;;;;;;;;;;;;24.80;43.13;101386.44;7398711;19;1493;-38
2023/09/06 00:51:08;;;;;;;;;;;;;;;24.80;43.03;101361.25;7400091;19;1388;-38
2023/09/06 00:53:37;;;;;;;;;;;;;;;24.83;42.74;101365.50;7399263;19;1914;-38
2023/09/06 00:56:08;;;;;;;;;;;;;;;24.79;42.96;101367.69;7399794;19;1467;-38
2023/09/06 00:58:38;;;;;;;;;;;;;;;24.80;42.72;101377.50;7400809;19;988;-38
2023/09/06 01:01:11;;;;;;;;;;;;;;;24.85;42.66;101385.13;7399973;19;1896;-38
2023/09/06 01:03:40;;;;;;;;;;;;;;;24.88;42.70;101379.41;7399556;19;1463;-38
2023/09/06 01:06:12;;;;;;;;;;;;;;;24.80;42.76;101377.50;7398812;19;1847;-38
2023/09/06 01:08:42;;;;;;;;;;;;;;;24.74;42.60;101375.44;7399063;19;1751;-38
2023/09/06 01:11:18;;;;;;;;;;;;;;;24.73;42.69;101376.41;7384057;19;1729;-38
2023/09/06 01:13:47;;;;;;;;;;;;;;;24.72;42.62;101377.44;7399176;19;1774;-38
2023/09/06 01:16:19;;;;;;;;;;;;;;;24.70;42.86;101383.00;7397597;19;1396;-38
2023/09/06 01:18:47;;;;;;;;;;;;;;;24.74;42.64;101386.25;7398377;19;1589;-38
2023/09/06 01:21:16;;;;;;;;;;;;;;;24.76;42.78;101378.81;7397584;19;1470;-38
2023/09/06 01:23:48;;;;;;;;;;;;;;;24.80;42.60;101394.56;7398493;19;1535;-38
2023/09/06 01:26:18;;;;;;;;;;;;;;;24.84;42.38;101391.56;7398218;19;1854;-38
2023/09/06 01:28:49;;;;;;;;;;;;;;;24.84;42.29;101388.84;7398300;19;1666;-38
2023/09/06 01:31:17;;;;;;;;;;;;;;;24.75;42.46;101385.22;7399335;19;1816;-38
2023/09/06 01:33:46;;;;;;;;;;;;;;;24.74;42.60;101386.25;7398885;19;1947;-38
2023/09/06 01:36:14;;;;;;;;;;;;;;;24.78;42.24;101391.16;7399547;19;1809;-38
2023/09/06 01:38:42;;;;;;;;;;;;;;;24.79;42.32;101384.78;7396438;19;2055;-38
2023/09/06 01:41:13;;;;;;;;;;;;;;;24.79;42.36;101386.63;7398685;19;1716;-38
2023/09/06 01:43:41;;;;;;;;;;;;;;;24.77;42.83;101391.31;7398667;19;1812;-38
2023/09/06 01:46:10;;;;;;;;;;;;;;;24.88;42.83;101391.06;7398145;19;1849;-39
2023/09/06 01:48:39;;;;;;;;;;;;;;;24.81;42.93;101380.06;7397668;19;1783;-39
2023/09/06 01:51:08;;;;;;;;;;;;;;;24.78;42.91;101384.91;7397801;19;1824;-38
2023/09/06 01:53:36;;;;;;;;;;;;;;;24.73;42.98;101362.91;7397126;19;1474;-38
2023/09/06 01:56:07;;;;;;;;;;;;;;;24.81;43.16;101390.03;7398049;19;1756;-38
2023/09/06 01:58:38;;;;;;;;;;;;;;;24.77;43.20;101375.09;7398969;19;1094;-39
2023/09/06 02:01:07;;;;;;;;;;;;;;;24.70;43.26;101361.38;7397387;19;1801;-39
2023/09/06 02:03:36;;;;;;;;;;;;;;;24.69;42.97;101375.91;7396141;19;1533;-38
2023/09/06 02:06:04;;;;;;;;;;;;;;;24.61;43.31;101374.00;7396481;19;1864;-39
2023/09/06 02:08:35;;;;;;;;;;;;;;;24.60;43.49;101366.88;7396294;19;1845;-38
2023/09/06 02:11:03;;;;;;;;;;;;;;;24.63;43.10;101370.28;7385869;19;1518;-38
2023/09/06 02:13:31;;;;;;;;;;;;;;;24.60;43.08;101361.47;7396773;19;1470;-39
2023/09/06 02:16:02;;;;;;;;;;;;;;;24.64;42.80;101370.13;7396153;19;1426;-38
2023/09/06 02:18:31;;;;;;;;;;;;;;;24.71;42.59;101362.22;7396261;19;1478;-38
2023/09/06 02:21:01;;;;;;;;;;;;;;;24.64;42.56;101359.31;7397470;19;1593;-38
2023/09/06 02:23:30;;;;;;;;;;;;;;;24.63;42.58;101364.88;7396700;19;1466;-38
2023/09/06 02:25:58;;;;;;;;;;;;;;;24.66;42.68;101369.97;7396326;19;1495;-38
2023/09/06 02:28:28;;;;;;;;;;;;;;;24.61;42.71;101363.19;7394377;19;1857;-38
2023/09/06 02:30:56;;;;;;;;;;;;;;;24.60;42.40;101375.00;7396347;19;1802;-38
2023/09/06 02:33:28;;;;;;;;;;;;;;;24.64;42.18;101371.97;7396378;19;1482;-38
2023/09/06 02:35:56;;;;;;;;;;;;;;;24.66;42.50;101365.41;7397794;19;1813;-38
2023/09/06 02:38:24;;;;;;;;;;;;;;;24.67;42.62;101379.75;7396370;19;1994;-38
2023/09/06 02:40:53;;;;;;;;;;;;;;;24.63;42.85;101375.69;7396997;19;1969;-38
2023/09/06 02:43:22;;;;;;;;;;;;;;;24.67;43.06;101377.94;7394338;19;1848;-38
2023/09/06 02:45:54;;;;;;;;;;;;;;;24.67;43.41;101377.06;7396380;19;1826;-38
2023/09/06 02:48:22;;;;;;;;;;;;;;;24.69;43.66;101380.44;7394274;19;1843;-38
2023/09/06 02:50:54;;;;;;;;;;;;;;;24.68;43.66;101370.66;7393659;19;1679;-38
2023/09/06 02:53:22;;;;;;;;;;;;;;;24.67;43.66;101390.56;7396005;19;1585;-38
2023/09/06 02:55:51;;;;;;;;;;;;;;;24.64;43.19;101390.91;7397363;19;1062;-38
2023/09/06 02:58:23;;;;;;;;;;;;;;;24.69;43.17;101391.28;7395537;19;1573;-38
2023/09/06 03:00:55;;;;;;;;;;;;;;;24.68;43.47;101392.28;7395509;19;1821;-38
2023/09/06 03:03:27;;;;;;;;;;;;;;;24.70;43.47;101387.56;7396644;19;1791;-39
2023/09/06 03:06:04;;;;;;;;;;;;;;;24.68;43.60;101395.84;7395422;19;1860;-38
2023/09/06 03:08:32;;;;;;;;;;;;;;;24.69;43.36;101391.28;7394269;19;1852;-38
2023/09/06 03:11:00;;;;;;;;;;;;;;;24.66;43.39;101397.84;7395651;19;1670;-38
2023/09/06 03:13:29;;;;;;;;;;;;;;;24.60;43.31;101402.03;7378755;19;1964;-38
2023/09/06 03:15:59;;;;;;;;;;;;;;;24.58;43.62;101414.84;7394241;19;1841;-38
2023/09/06 03:18:28;;;;;;;;;;;;;;;24.57;43.72;101410.47;7393529;19;1400;-38
2023/09/06 03:20:56;;;;;;;;;;;;;;;24.60;43.90;101409.31;7395005;19;1500;-38
2023/09/06 03:23:29;;;;;;;;;;;;;;;24.61;43.56;101413.69;7395206;19;1605;-38
2023/09/06 03:25:57;;;;;;;;;;;;;;;24.60;43.46;101410.16;7394784;19;1736;-38
2023/09/06 03:28:26;;;;;;;;;;;;;;;24.55;43.29;101412.50;7394617;19;1863;-38
2023/09/06 03:30:58;;;;;;;;;;;;;;;24.58;43.32;101411.31;7394342;19;1534;-38
2023/09/06 03:33:26;;;;;;;;;;;;;;;24.57;43.32;101417.72;7394497;19;1636;-38
2023/09/06 03:35:55;;;;;;;;;;;;;;;24.54;43.67;101405.38;7395100;19;1842;-38
2023/09/06 03:38:27;;;;;;;;;;;;;;;24.58;43.51;101414.84;7395104;19;1436;-38
2023/09/06 03:40:55;;;;;;;;;;;;;;;24.59;43.52;101418.41;7394002;19;1507;-38
2023/09/06 03:43:30;;;;;;;;;;;;;;;24.54;43.74;101416.19;7393491;19;1499;-38
2023/09/06 03:45:59;;;;;;;;;;;;;;;24.55;43.93;101420.59;7393518;19;1771;-38
2023/09/06 03:48:28;;;;;;;;;;;;;;;24.49;44.13;101423.91;7392604;19;1843;-38
2023/09/06 03:50:57;;;;;;;;;;;;;;;24.56;43.96;101441.22;7394005;19;1638;-38
2023/09/06 03:53:29;;;;;;;;;;;;;;;23.82;44.00;101326.16;7393247;19;1673;-38
2023/09/06 03:56:00;;;;;;;;;;;;;;;24.57;44.16;101432.09;7398930;19;1627;-38
2023/09/06 03:58:28;;;;;;;;;;;;;;;24.46;43.96;101428.75;7400537;19;1835;-38
2023/09/06 04:00:56;;;;;;;;;;;;;;;24.43;44.38;101421.78;7401148;19;1800;-38
2023/09/06 04:03:26;;;;;;;;;;;;;;;24.52;44.45;101445.22;7402298;19;1719;-38
2023/09/06 04:05:55;;;;;;;;;;;;;;;24.51;44.41;101443.56;7401327;19;1743;-38
2023/09/06 04:08:25;;;;;;;;;;;;;;;24.45;44.28;101430.59;7398814;19;1858;-38
2023/09/06 04:10:56;;;;;;;;;;;;;;;24.36;44.50;101429.69;7397511;19;1494;-47
2023/09/06 04:13:24;;;;;;;;;;;;;;;24.37;44.64;101442.22;7385087;19;1766;-38
2023/09/06 04:15:52;;;;;;;;;;;;;;;24.36;44.87;101445.06;7400889;19;1479;-38
2023/09/06 04:18:21;;;;;;;;;;;;;;;24.45;44.46;101440.56;7401745;19;1396;-38
2023/09/06 04:20:50;;;;;;;;;;;;;;;24.41;44.56;101445.44;7401742;19;1547;-38
2023/09/06 04:23:18;;;;;;;;;;;;;;;24.42;44.83;101430.91;7401359;19;1790;-38
2023/09/06 04:25:47;;;;;;;;;;;;;;;24.58;44.36;101435.66;7402077;19;1514;-38
2023/09/06 04:28:20;;;;;;;;;;;;;;;24.86;43.84;101436.38;7400191;19;1846;-38
2023/09/06 04:30:49;;;;;;;;;;;;;;;24.93;43.71;101452.81;7401818;19;1185;-38
2023/09/06 04:33:17;;;;;;;;;;;;;;;24.80;44.14;101437.00;7400816;19;1736;-38
2023/09/06 04:35:47;;;;;;;;;;;;;;;24.81;44.42;101438.72;7401516;19;1933;-38
2023/09/06 04:38:16;;;;;;;;;;;;;;;24.75;44.26;101444.72;7400799;19;1890;-38
2023/09/06 04:40:46;;;;;;;;;;;;;;;24.68;44.26;101427.44;7401016;19;1652;-38
2023/09/06 04:43:15;;;;;;;;;;;;;;;24.73;44.35;101433.22;7401002;19;1408;-38
2023/09/06 04:45:46;;;;;;;;;;;;;;;24.68;44.63;101430.16;7400536;19;1544;-38
2023/09/06 04:48:16;;;;;;;;;;;;;;;24.70;44.36;101447.91;7397566;19;1838;-38
2023/09/06 04:50:45;;;;;;;;;;;;;;;24.62;44.71;101442.44;7399023;19;1557;-38
2023/09/06 04:53:17;;;;;;;;;;;;;;;24.65;44.37;101449.38;7400561;19;1609;-38
2023/09/06 04:55:45;;;;;;;;;;;;;;;24.59;44.18;101451.72;7399599;19;1088;-38
2023/09/06 04:58:14;;;;;;;;;;;;;;;24.71;44.25;101448.75;7397848;19;1614;-38
2023/09/06 05:00:43;;;;;;;;;;;;;;;24.73;44.53;101457.56;7398586;19;1653;-38
2023/09/06 05:03:17;;;;;;;;;;;;;;;24.79;43.73;101456.97;7400419;19;1499;-37
2023/09/06 05:05:46;;;;;;;;;;;;;;;24.73;43.82;101449.44;7398999;19;1970;-37
2023/09/06 05:08:14;;;;;;;;;;;;;;;24.82;43.52;101462.03;7397929;19;1852;-37
2023/09/06 05:10:42;;;;;;;;;;;;;;;24.92;43.06;101464.66;7398286;19;1534;-38
2023/09/06 05:13:11;;;;;;;;;;;;;;;24.83;43.11;101458.34;7384097;19;1518;-38
2023/09/06 05:15:40;;;;;;;;;;;;;;;24.88;43.33;101461.41;7398588;19;1523;-37
2023/09/06 05:18:09;;;;;;;;;;;;;;;24.83;43.51;101462.88;7398595;19;1356;-37
2023/09/06 05:20:41;;;;;;;;;;;;;;;24.85;43.56;101472.56;7395247;19;1762;-38
2023/09/06 05:23:10;;;;;;;;;;;;;;;24.93;43.27;101469.91;7399456;19;1654;-38
2023/09/06 05:25:39;;;;;;;;;;;;;;;24.93;43.32;101475.31;7398208;19;1400;-38
2023/09/06 05:28:08;;;;;;;;;;;;;;;25.05;43.33;101469.63;7391550;19;1861;-38
2023/09/06 05:30:39;;;;;;;;;;;;;;;25.11;42.72;101483.41;7391720;19;1495;-38
2023/09/06 05:33:08;;;;;;;;;;;;;;;25.09;42.30;101479.13;7389427;19;1616;-38
2023/09/06 05:35:36;;;;;;;;;;;;;;;25.16;42.44;101483.75;7392402;19;1411;-38
2023/09/06 05:38:09;;;;;;;;;;;;;;;25.28;41.83;101511.44;7392753;19;1515;-37
2023/09/06 05:40:37;;;;;;;;;;;;;;;25.41;41.82;101489.38;7390203;19;1400;-38
2023/09/06 05:43:06;;;;;;;;;;;;;;;25.45;41.77;101484.50;7392582;19;1487;-38
2023/09/06 05:45:34;;;;;;;;;;;;;;;25.49;41.40;101480.44;7393193;19;1584;-37
2023/09/06 05:48:03;;;;;;;;;;;;;;;25.38;41.68;101485.09;7392153;19;1888;-38
2023/09/06 05:50:31;;;;;;;;;;;;;;;25.46;41.50;101486.19;7389086;19;1771;-37
2023/09/06 05:53:00;;;;;;;;;;;;;;;25.43;41.35;101486.47;7390458;19;1801;-37
2023/09/06 05:55:30;;;;;;;;;;;;;;;25.48;41.49;101478.72;7393525;19;1016;-37
2023/09/06 05:57:59;;;;;;;;;;;;;;;25.53;41.67;101476.41;7389117;19;1901;-38
2023/09/06 06:00:28;;;;;;;;;;;;;;;25.45;41.38;101479.06;7390665;19;1811;-37
2023/09/06 06:02:59;;;;;;;;;;;;;;;25.35;41.70;101474.63;7390287;19;2066;-38
2023/09/06 06:05:28;;;;;;;;;;;;;;;25.39;42.04;101489.53;7392528;19;1510;-38
2023/09/06 06:07:57;;;;;;;;;;;;;;;25.36;41.85;101500.66;7391001;19;1836;-37
2023/09/06 06:10:29;;;;;;;;;;;;;;;25.30;42.87;101486.94;7389662;19;1633;-37
2023/09/06 06:13:00;;;;;;;;;;;;;;;25.32;43.89;101490.31;7373965;19;1424;-37
2023/09/06 06:15:28;;;;;;;;;;;;;;;25.22;44.71;101479.59;7391570;19;1566;-38
2023/09/06 06:17:56;;;;;;;;;;;;;;;25.13;44.57;101477.84;7387765;19;1739;-38
2023/09/06 06:20:24;;;;;;;;;;;;;;;25.13;44.99;101480.53;7390840;19;1397;-38
2023/09/06 06:22:53;;;;;;;;;;;;;;;25.20;44.46;101481.59;7389149;19;1221;-38
2023/09/06 06:25:21;;;;;;;;;;;;;;;25.28;44.36;101489.78;7389585;19;1721;-37
2023/09/06 06:27:51;;;;;;;;;;;;;;;25.20;44.71;101493.25;7388791;19;1874;-38
2023/09/06 06:30:22;;;;;;;;;;;;;;;25.23;44.64;101492.16;7389017;19;1621;-37
2023/09/06 06:32:51;;;;;;;;;;;;;;;25.20;44.81;101487.00;7388482;19;1356;-38
2023/09/06 06:35:19;;;;;;;;;;;;;;;25.19;44.88;101483.44;7389797;19;1480;-37
2023/09/06 06:37:50;;;;;;;;;;;;;;;25.21;44.50;101480.59;7390328;19;1392;-38
2023/09/06 06:40:19;;;;;;;;;;;;;;;25.27;44.52;101509.75;7390084;19;1558;-37
2023/09/06 06:42:47;;;;;;;;;;;;;;;25.46;43.40;101494.28;7387258;19;1379;-38
2023/09/06 06:45:16;;;;;;;;;;;;;;;25.60;43.28;101496.41;7389282;19;1756;-38
2023/09/06 06:47:46;;;;;;;;;;;;;;;25.62;43.47;101490.81;7387664;19;1541;-38
2023/09/06 06:50:15;;;;;;;;;;;;;;;25.60;43.17;101485.56;7387352;19;1858;-37
2023/09/06 06:52:44;;;;;;;;;;;;;;;25.64;43.42;101497.78;7387748;19;1523;-38
2023/09/06 06:55:13;;;;;;;;;;;;;;;25.69;41.94;101503.56;7389076;19;1086;-38
2023/09/06 06:57:41;;;;;;;;;;;;;;;25.46;42.49;101502.41;7385396;19;1471;-37
2023/09/06 07:00:11;;;;;;;;;;;;;;;25.52;43.10;101499.06;7387146;19;1308;-38
2023/09/06 07:02:39;;;;;;;;;;;;;;;25.67;42.95;101505.59;7386767;19;1495;-38
2023/09/06 07:05:10;;;;;;;;;;;;;;;25.59;42.59;101510.97;7386959;19;1749;-38
2023/09/06 07:07:39;;;;;;;;;;;;;;;25.52;43.31;101515.31;7386224;19;1455;-37
2023/09/06 07:10:08;;;;;;;;;;;;;;;25.69;43.49;101503.56;7385961;19;1866;-38
2023/09/06 07:12:36;;;;;;;;;;;;;;;25.75;43.23;101532.72;7373485;19;1556;-38
2023/09/06 07:15:05;;;;;;;;;;;;;;;25.86;43.41;101514.47;7385542;19;1577;-38
2023/09/06 07:17:33;;;;;;;;;;;;;;;25.93;43.25;101505.56;7388831;19;1514;-38
2023/09/06 07:20:01;;;;;;;;;;;;;;;25.92;43.61;101497.59;7388497;19;1471;-38
2023/09/06 07:22:33;;;;;;;;;;;;;;;25.73;45.43;101506.81;7388827;19;1523;-37
2023/09/06 07:25:01;;;;;;;;;;;;;;;25.79;45.26;101501.56;7387977;19;1942;-37
2023/09/06 07:27:29;;;;;;;;;;;;;;;25.67;45.26;101507.44;7388370;19;1854;-38
2023/09/06 07:29:58;;;;;;;;;;;;;;;25.72;45.31;101508.63;7387613;19;1838;-38
2023/09/06 07:32:26;;;;;;;;;;;;;;;25.70;45.26;101491.69;7393607;19;1491;-38
2023/09/06 07:34:54;;;;;;;;;;;;;;;25.71;45.27;101501.53;7394122;19;1617;-38
2023/09/06 07:37:22;;;;;;;;;;;;;;;25.82;45.02;101486.00;7392705;19;1593;-38
2023/09/06 07:39:54;;;;;;;;;;;;;;;25.82;44.68;101503.09;7111533;19;5011462;-38
2023/09/06 07:42:22;;;;;;;;;;;;;;;25.79;44.95;101496.16;7393173;19;1599;-38
2023/09/06 07:44:50;;;;;;;;;;;;;;;25.66;45.65;101492.19;7395822;19;1592;-38
2023/09/06 07:47:18;;;;;;;;;;;;;;;25.92;45.16;101492.16;7395058;19;1492;-38
2023/09/06 07:49:47;;;;;;;;;;;;;;;25.92;45.18;101497.59;7393194;19;1969;-38
2023/09/06 07:52:15;;;;;;;;;;;;;;;25.87;45.31;101492.63;7393842;19;1659;-38
2023/09/06 07:54:43;;;;;;;;;;;;;;;26.02;45.17;101484.75;7395951;19;1050;-38
2023/09/06 07:57:14;;;;;;;;;;;;;;;25.95;45.46;101497.28;7395050;19;1565;-38
2023/09/06 07:59:42;;;;;;;;;;;;;;;25.51;45.91;101462.19;7395888;19;1550;-38
2023/09/06 08:02:11;;;;;;;;;;;;;;;25.72;46.44;101497.81;7394666;19;1461;-38
2023/09/06 08:04:39;;;;;;;;;;;;;;;25.75;46.68;101491.22;7394994;19;1434;-38
2023/09/06 08:07:07;;;;;;;;;;;;;;;25.28;46.61;101410.44;7392995;19;1768;-38
2023/09/06 08:09:35;;;;;;;;;;;;;;;25.92;46.72;101503.00;7392750;19;1883;-38
2023/09/06 08:12:04;;;;;;;;;;;;;;;25.86;47.29;101492.78;7393067;19;1499;-38
2023/09/06 08:14:35;;;;;;;;;;;;;;;25.97;46.98;101490.66;7377559;19;1414;-38
2023/09/06 08:17:03;;;;;;;;;;;;;;;25.37;46.78;101399.50;7392484;19;1646;-38
2023/09/06 08:19:32;;;;;;;;;;;;;;;26.01;47.18;101490.34;7392431;19;1545;-38
2023/09/06 08:22:01;;;;;;;;;;;;;;;26.04;47.08;101496.25;7393303;19;1566;-38
2023/09/06 08:24:31;;;;;;;;;;;;;;;26.08;48.44;101508.47;7394483;19;1503;-38
2023/09/06 08:26:59;;;;;;;;;;;;;;;26.15;47.69;101495.13;7392062;19;1549;-38
2023/09/06 08:29:27;;;;;;;;;;;;;;;26.05;47.86;101492.56;7389737;19;1855;-38
2023/09/06 08:31:58;;;;;;;;;;;;;;;26.16;47.58;101489.53;7393024;19;1371;-38
2023/09/06 08:34:26;;;;;;;;;;;;;;;26.08;48.21;101541.00;7392756;19;1527;-38
2023/09/06 08:36:56;;;;;;;;;;;;;;;25.93;49.58;101502.00;7392719;19;1574;-45
2023/09/06 08:39:24;;;;;;;;;;;;;;;26.02;49.28;101503.72;7391225;19;1439;-38
2023/09/06 08:41:54;;;;;;;;;;;;;;;25.95;49.80;101505.41;7393260;19;1236;-38
2023/09/06 08:44:25;;;;;;;;;;;;;;;26.05;49.28;101497.97;7395065;19;1785;-38
2023/09/06 08:46:55;;;;;;;;;;;;;;;26.02;49.92;101509.13;7393397;19;1839;-38
2023/09/06 08:49:27;;;;;;;;;;;;;;;26.05;49.71;101495.25;7392304;19;1845;-38
2023/09/06 08:51:56;;;;;;;;;;;;;;;25.98;50.49;101488.78;7393612;19;1723;-38
2023/09/06 08:54:25;;;;;;;;;;;;;;;25.89;50.90;101493.31;7392708;19;1824;-38
2023/09/06 08:56:54;;;;;;;;;;;;;;;25.94;50.28;101492.84;7391658;19;1367;-38
2023/09/06 08:59:23;;;;;;;;;;;;;;;26.02;50.08;101487.44;7393382;19;1614;-38
2023/09/06 09:01:51;;;;;;;;;;;;;;;25.98;50.36;101483.38;7392922;19;1619;-38
2023/09/06 09:04:20;;;;;;;;;;;;;;;26.01;50.46;101477.63;7391638;19;1464;-38
2023/09/06 09:06:51;;;;;;;;;;;;;;;26.12;49.87;101487.31;7391773;19;1230;-38
2023/09/06 09:09:20;;;;;;;;;;;;;;;26.02;50.45;101482.03;7392776;19;1878;-38
2023/09/06 09:11:51;;;;;;;;;;;;;;;26.19;49.68;101493.78;7392799;19;1811;-38
2023/09/06 09:14:23;;;;;;;;;;;;;;;26.16;51.12;101481.41;7376028;19;1510;-38
2023/09/06 09:17:01;;;;;;;;;;;;;;;26.03;50.79;101475.63;7389622;19;1364;-38
2023/09/06 09:19:29;;;;;;;;;;;;;;;26.02;50.68;101492.88;7390303;19;1633;-38
2023/09/06 09:22:00;;;;;;;;;;;;;;;25.97;50.73;101471.69;7392705;19;1371;-38
2023/09/06 09:24:30;;;;;;;;;;;;;;;26.03;50.78;101459.34;7393766;19;1469;-38
2023/09/06 09:26:59;;;;;;;;;;;;;;;25.97;51.84;101484.41;7389494;19;1776;-38
2023/09/06 09:29:28;;;;;;;;;;;;;;;25.91;51.85;101491.31;7388667;19;1853;-38
2023/09/06 09:32:02;;;;;;;;;;;;;;;25.92;52.43;101475.91;7391155;19;1506;-38
2023/09/06 09:34:31;;;;;;;;;;;;;;;25.22;53.53;101478.75;7392145;19;1440;-38
2023/09/06 09:37:05;;;;;;;;;;;;;;;24.96;53.84;101483.09;7392760;19;1327;-38
2023/09/06 09:39:34;;;;;;;;;;;;;;;24.94;53.06;101474.31;7392578;19;1399;-38
2023/09/06 09:42:03;;;;;;;;;;;;;;;24.94;53.15;101487.00;7389613;19;1462;-38
2023/09/06 09:44:31;;;;;;;;;;;;;;;24.90;53.17;101464.81;7391590;19;1566;-38
2023/09/06 09:47:00;;;;;;;;;;;;;;;24.92;53.16;101462.78;7392997;19;1340;-38
2023/09/06 09:49:29;;;;;;;;;;;;;;;24.91;53.14;101471.06;7394360;19;1841;-37
2023/09/06 09:51:57;;;;;;;;;;;;;;;24.85;53.47;101461.75;7393903;19;1764;-38
2023/09/06 09:54:30;;;;;;;;;;;;;;;24.87;53.41;101481.38;7390845;19;2113;-38
2023/09/06 09:57:04;;;;;;;;;;;;;;;24.85;53.27;101464.44;7390905;19;1784;-38
2023/09/06 09:59:33;;;;;;;;;;;;;;;24.89;53.83;101489.31;7389444;19;1470;-38
2023/09/06 10:02:02;;;;;;;;;;;;;;;24.79;53.39;101468.63;7389540;19;1405;-37
2023/09/06 10:04:32;;;;;;;;;;;;;;;24.81;53.51;101461.19;7393495;19;1073;-37
2023/09/06 10:07:00;;;;;;;;;;;;;;;24.86;53.33;101466.13;7390561;19;1484;-38
2023/09/06 10:09:31;;;;;;;;;;;;;;;24.84;53.48;101465.44;7390178;19;1849;-42
2023/09/06 10:12:01;;;;;;;;;;;;;;;24.69;53.75;101465.16;7390358;19;1463;-38
2023/09/06 10:14:30;;;;;;;;;;;;;;;24.84;53.39;101465.44;7377437;19;1578;-38
2023/09/06 10:16:58;;;;;;;;;;;;;;;24.82;53.56;101462.03;7390250;19;1526;-38
2023/09/06 10:19:27;;;;;;;;;;;;;;;24.71;53.90;101476.69;7388742;19;1379;-38
2023/09/06 10:21:55;;;;;;;;;;;;;;;24.81;53.75;101463.91;7389026;19;1566;-38
2023/09/06 10:24:24;;;;;;;;;;;;;;;24.82;53.63;101456.63;7392033;19;1433;-38
2023/09/06 10:26:56;;;;;;;;;;;;;;;24.73;53.94;101462.97;7388683;19;1927;-38
2023/09/06 10:29:25;;;;;;;;;;;;;;;24.75;53.92;101466.38;7389745;19;1869;-38
2023/09/06 10:31:54;;;;;;;;;;;;;;;25.05;53.47;101461.53;7389509;19;1518;-38
2023/09/06 10:34:23;;;;;;;;;;;;;;;25.27;52.62;101444.78;7387251;19;1625;-38
2023/09/06 10:36:54;;;;;;;;;;;;;;;25.34;52.48;101445.81;7382465;19;1865;-38
2023/09/06 10:39:25;;;;;;;;;;;;;;;25.75;51.82;101447.88;7387400;19;1499;-38
2023/09/06 10:42:06;;;;;;;;;;;;;;;25.59;52.29;101444.09;7389220;19;1384;-38
2023/09/06 10:45:06;;;;;;;;;;;;;;;25.52;53.33;101447.63;7394781;19;1522;-39
2023/09/06 10:47:36;;;;;;;;;;;;;;;25.53;53.21;101450.16;7396643;19;1621;-38
2023/09/06 10:50:11;;;;;;;;;;;;;;;25.57;52.73;101442.56;7395005;19;1868;-38
2023/09/06 10:52:44;;;;;;;;;;;;;;;25.76;53.28;101455.00;7396142;19;1768;-37
2023/09/06 10:55:13;;;;;;;;;;;;;;;25.82;53.29;101443.50;7397770;19;1244;-37
2023/09/06 10:58:06;;;;;;;;;;;;;;;26.02;52.83;101438.66;7395536;19;1946;-38
2023/09/06 11:00:37;;;;;;;;;;;;;;;26.09;53.04;101464.09;7395368;19;2338;-37
2023/09/06 11:03:17;;;;;;;;;;;;;;;26.02;54.21;101435.13;7396452;19;1831;-38
2023/09/06 11:05:48;;;;;;;;;;;;;;;25.97;55.52;101439.16;7394440;19;1850;-38
2023/09/06 11:08:27;;;;;;;;;;;;;;;25.96;55.60;101429.38;7392632;19;1752;-38
2023/09/06 11:11:01;;;;;;;;;;;;;;;26.01;57.99;101436.16;7392399;19;1859;-38
2023/09/06 11:13:30;;;;;;;;;;;;;;;25.89;55.90;101424.72;7378645;19;1559;-38
2023/09/06 11:16:01;;;;;;;;;;;;;;;25.96;55.99;101442.91;7394842;19;1509;-38
2023/09/06 11:18:32;;;;;;;;;;;;;;;26.02;57.04;101438.66;7395515;19;1737;-38
2023/09/06 11:21:00;;;;;;;;;;;;;;;25.45;57.00;101339.13;7395681;19;1636;-38
2023/09/06 11:23:30;;;;;;;;;;;;;;;25.85;57.36;101415.25;7393469;19;1458;-38
2023/09/06 11:26:01;;;;;;;;;;;;;;;25.72;57.13;101404.84;7394575;19;1462;-38
2023/09/06 11:28:34;;;;;;;;;;;;;;;25.70;59.52;101415.00;7395158;19;1613;-38
2023/09/06 11:31:05;;;;;;;;;;;;;;;25.76;58.45;101407.06;7394289;19;1865;-38
2023/09/06 11:33:35;;;;;;;;;;;;;;;25.69;59.79;101389.78;7395935;19;1630;-38
2023/09/06 11:36:04;;;;;;;;;;;;;;;25.77;59.51;101406.06;7396538;19;1123;-38
2023/09/06 11:38:38;;;;;;;;;;;;;;;25.88;59.35;101407.59;7395191;19;1867;-38
2023/09/06 11:41:08;;;;;;;;;;;;;;;25.90;58.83;101407.44;7393840;19;1791;-38
2023/09/06 11:43:41;;;;;;;;;;;;;;;25.90;58.85;101393.91;7394116;19;1806;-38
2023/09/06 11:46:14;;;;;;;;;;;;;;;25.95;59.76;101394.28;7394579;19;1562;-38
2023/09/06 11:48:43;;;;;;;;;;;;;;;25.96;60.20;101385.13;7394282;19;1545;-38
2023/09/06 11:51:13;;;;;;;;;;;;;;;25.94;60.25;101404.28;7392008;19;1928;-38
2023/09/06 11:53:48;;;;;;;;;;;;;;;26.01;59.72;101384.66;7394923;19;1606;-38
2023/09/06 11:56:21;;;;;;;;;;;;;;;26.01;59.59;101385.50;7394105;19;1435;-38
2023/09/06 11:58:51;;;;;;;;;;;;;;;26.02;59.53;101379.03;7395378;19;1401;-38
2023/09/06 12:01:26;;;;;;;;;;;;;;;26.04;59.49;101377.00;7393207;19;1268;-38
2023/09/06 12:03:56;;;;;;;;;;;;;;;25.97;59.03;101376.84;7390907;19;1806;-38
2023/09/06 12:06:25;;;;;;;;;;;;;;;25.97;60.85;101374.13;7393544;19;1510;-38
2023/09/06 12:08:53;;;;;;;;;;;;;;;25.77;59.30;101375.44;7393578;19;1546;-38
2023/09/06 12:11:24;;;;;;;;;;;;;;;25.57;58.80;101380.28;7392169;19;1853;-38
2023/09/06 12:13:54;;;;;;;;;;;;;;;25.65;58.67;101372.19;7378933;19;1798;-38
2023/09/06 12:16:25;;;;;;;;;;;;;;;25.66;59.59;101378.44;7394757;19;1578;-38
2023/09/06 12:18:54;;;;;;;;;;;;;;;25.67;59.93;101364.72;7396983;19;1535;-38
2023/09/06 12:21:23;;;;;;;;;;;;;;;25.58;59.98;101360.28;7398867;19;1303;-38
2023/09/06 12:23:51;;;;;;;;;;;;;;;25.53;59.87;101362.66;7396632;19;1422;-38
2023/09/06 12:26:20;;;;;;;;;;;;;;;25.58;59.37;101357.59;7395872;19;1502;-38
2023/09/06 12:28:50;;;;;;;;;;;;;;;25.45;59.89;101365.34;7394426;19;1490;-38
2023/09/06 12:31:18;;;;;;;;;;;;;;;25.42;59.92;101362.97;7393793;19;1862;-39
2023/09/06 12:33:51;;;;;;;;;;;;;;;25.37;60.04;101356.19;7398377;19;1420;-38
2023/09/06 12:36:19;;;;;;;;;;;;;;;25.43;59.59;101356.50;7401159;19;1685;-38
2023/09/06 12:38:48;;;;;;;;;;;;;;;25.42;59.61;101349.41;7400645;19;1762;-38
2023/09/06 12:41:16;;;;;;;;;;;;;;;25.39;59.53;101356.00;7399529;19;1811;-37
2023/09/06 12:43:44;;;;;;;;;;;;;;;25.57;59.02;101358.63;7400649;19;1795;-38
2023/09/06 12:46:13;;;;;;;;;;;;;;;25.54;58.25;101345.38;7398906;19;1629;-38
2023/09/06 12:48:42;;;;;;;;;;;;;;;25.68;58.34;101343.91;7395563;19;1690;-38
2023/09/06 12:51:13;;;;;;;;;;;;;;;25.66;57.78;101348.63;7396854;19;1850;-38
2023/09/06 12:53:41;;;;;;;;;;;;;;;25.68;57.92;101330.34;7397794;19;1453;-38
2023/09/06 12:56:11;;;;;;;;;;;;;;;25.62;57.91;101339.16;7398924;19;1546;-38
2023/09/06 12:58:39;;;;;;;;;;;;;;;25.53;58.14;101351.84;7400985;19;1254;-38
2023/09/06 13:01:10;;;;;;;;;;;;;;;25.55;57.55;101345.22;7399252;19;1624;-38